Time;durP1;ratioP1;P1;durP2;ratioP2;P2;SDS_P1;SDS_P2;PMS_P1;PMS_P2;Temp;Humidity;BMP_temperature;BMP_pressure;BME280_temperature;BME280_humidity;BME280_pressure;Samples;Min_cycle;Max_cycle;Signal;HPM_P1;HPM_P2
2023/07/07 00:00:51;;;;;;;16.17;6.45;;;;;;;27.01;54.08;100192.94;5072493;28;20055;-87
2023/07/07 00:03:16;;;;;;;17.23;6.68;;;;;;;27.02;54.22;100194.66;5086640;28;20035;-88
2023/07/07 00:05:43;;;;;;;10.30;7.05;;;;;;;26.93;54.38;100179.53;5088099;28;20463;-87
2023/07/07 00:08:08;;;;;;;17.17;6.88;;;;;;;26.92;54.68;100177.00;5073696;28;20028;-88
2023/07/07 00:10:34;;;;;;;11.43;7.43;;;;;;;26.92;54.26;100185.28;5071554;28;20025;-88
2023/07/07 00:12:59;;;;;;;19.42;7.70;;;;;;;26.88;54.69;100187.69;5071258;28;20021;-88
2023/07/07 00:15:25;;;;;;;16.23;6.80;;;;;;;26.82;54.62;100176.75;5071928;28;20040;-87
2023/07/07 00:17:50;;;;;;;15.13;7.03;;;;;;;26.82;54.74;100188.66;5072165;28;20024;-87
2023/07/07 00:20:17;;;;;;;18.20;7.22;;;;;;;26.79;55.16;100185.50;5071940;28;20111;-88
2023/07/07 00:22:44;;;;;;;29.05;6.57;;;;;;;26.74;55.12;100194.50;5071881;28;20043;-89
2023/07/07 00:25:10;;;;;;;17.20;6.13;;;;;;;26.76;55.13;100203.38;5072216;28;20039;-87
2023/07/07 00:27:37;;;;;;;22.55;7.50;;;;;;;26.74;55.14;100199.19;5072041;28;20048;-86
2023/07/07 00:30:03;;;;;;;17.50;6.65;;;;;;;26.65;55.23;100198.72;5077297;28;20088;-86
2023/07/07 00:32:30;;;;;;;16.63;6.82;;;;;;;26.75;55.22;100198.97;5077608;28;20063;-86
2023/07/07 00:34:56;;;;;;;15.88;7.70;;;;;;;26.63;55.29;100177.97;5072798;28;20024;-86
2023/07/07 00:37:21;;;;;;;8.30;6.75;;;;;;;26.53;55.76;100173.03;5079748;28;20047;-88
2023/07/07 00:39:47;;;;;;;14.57;7.25;;;;;;;26.57;55.90;100185.28;5101949;28;20373;-87
2023/07/07 00:42:12;;;;;;;14.43;6.15;;;;;;;26.42;56.20;100180.22;5103708;28;20016;-86
2023/07/07 00:45:16;;;;;;;22.75;7.75;;;;;;;26.42;56.57;100188.50;5116750;28;20781;-87
2023/07/07 00:47:47;;;;;;;16.63;8.00;;;;;;;26.32;57.12;100192.94;5116898;28;20064;-87
2023/07/07 00:50:16;;;;;;;19.45;6.95;;;;;;;26.26;56.96;100185.63;5116256;28;20056;-87
2023/07/07 00:52:44;;;;;;;15.52;7.03;;;;;;;26.15;57.22;100175.34;5107132;28;20035;-86
2023/07/07 00:55:19;;;;;;;14.07;6.13;;;;;;;26.28;57.26;100197.25;5093539;28;20047;-87
2023/07/07 00:57:46;;;;;;;13.63;7.50;;;;;;;26.18;57.28;100191.47;5090629;28;20036;-87
2023/07/07 01:00:12;;;;;;;13.88;6.75;;;;;;;26.15;57.42;100183.63;5071500;28;20025;-88
2023/07/07 01:02:42;;;;;;;24.45;7.45;;;;;;;26.19;57.68;100193.16;5070427;28;20028;-87
2023/07/07 01:05:08;;;;;;;18.10;6.50;;;;;;;26.08;57.52;100185.69;5070224;28;20107;-87
2023/07/07 01:07:43;;;;;;;21.45;8.02;;;;;;;26.18;57.79;100199.72;5070749;28;20115;-87
2023/07/07 01:10:09;;;;;;;13.55;6.63;;;;;;;26.03;57.77;100183.59;5070185;28;20056;-87
2023/07/07 01:12:35;;;;;;;11.65;6.05;;;;;;;26.11;57.84;100201.75;5069105;28;20186;-87
2023/07/07 01:15:02;;;;;;;15.93;7.45;;;;;;;26.07;57.91;100195.00;5091854;28;20025;-87
2023/07/07 01:17:28;;;;;;;17.88;6.57;;;;;;;26.07;58.12;100198.59;5075569;28;20024;-87
2023/07/07 01:20:15;;;;;;;25.50;6.65;;;;;;;26.09;57.94;100198.34;5073564;28;20057;-87
2023/07/07 01:23:06;;;;;;;11.95;7.60;;;;;;;26.02;58.31;100192.13;5070612;28;20094;-88
2023/07/07 01:25:46;;;;;;;13.10;6.55;;;;;;;25.99;58.48;100194.25;5070583;28;20032;-88
2023/07/07 01:28:23;;;;;;;14.13;6.30;;;;;;;25.98;58.52;100192.59;5070157;28;20028;-88
2023/07/07 01:31:10;;;;;;;16.50;7.95;;;;;;;25.96;58.50;100188.41;5069801;28;20485;-87
2023/07/07 01:33:36;;;;;;;13.18;6.53;;;;;;;25.74;58.88;100156.94;5069700;28;20045;-87
2023/07/07 01:36:01;;;;;;;19.27;7.80;;;;;;;25.78;58.97;100182.94;5069345;28;20028;-87
2023/07/07 01:38:39;;;;;;;10.18;6.32;;;;;;;25.82;59.14;100197.94;5070167;28;20284;-87
2023/07/07 01:41:28;;;;;;;16.83;7.38;;;;;;;25.81;59.08;100197.09;5071281;28;20086;-87
2023/07/07 01:44:02;;;;;;;19.83;6.55;;;;;;;25.78;59.17;100188.44;5072691;28;20017;-86
2023/07/07 01:46:31;;;;;;;11.10;5.82;;;;;;;25.80;59.41;100189.06;5081639;28;20078;-86
2023/07/07 01:49:09;;;;;;;14.43;7.22;;;;;;;25.88;59.17;100188.72;5080534;28;20059;-88
2023/07/07 01:52:02;;;;;;;16.20;6.80;;;;;;;25.87;59.23;100198.91;5082016;28;20024;-88
2023/07/07 01:54:31;;;;;;;14.60;6.50;;;;;;;25.82;59.16;100190.50;5027331;28;20053;-89
2023/07/07 01:56:58;;;;;;;17.65;7.60;;;;;;;25.69;59.63;100187.94;5008176;28;20121;-87
2023/07/07 01:59:24;;;;;;;12.45;7.63;;;;;;;25.57;59.55;100177.94;5008081;28;20513;-87
2023/07/07 02:01:50;;;;;;;15.20;6.72;;;;;;;25.63;59.84;100191.63;5008009;28;20034;-89
2023/07/07 02:04:15;;;;;;;20.80;6.38;;;;;;;25.48;60.11;100180.16;5008000;28;20038;-86
2023/07/07 02:06:41;;;;;;;12.43;6.63;;;;;;;25.51;60.24;100192.66;5009393;28;20099;-85
2023/07/07 02:09:06;;;;;;;20.23;7.13;;;;;;;25.48;60.45;100191.16;5015142;28;20034;-85
2023/07/07 02:11:32;;;;;;;12.73;7.03;;;;;;;25.47;60.54;100189.50;5022791;28;20038;-87
2023/07/07 02:13:57;;;;;;;10.63;6.97;;;;;;;25.41;60.53;100191.25;5007996;28;20121;-86
2023/07/07 02:16:23;;;;;;;11.93;5.90;;;;;;;25.38;60.77;100180.69;5009350;28;20447;-87
2023/07/07 02:18:48;;;;;;;16.83;6.78;;;;;;;25.40;60.88;100186.00;5011081;28;20136;-86
2023/07/07 02:21:18;;;;;;;11.35;6.82;;;;;;;25.34;60.72;100176.75;4992421;28;20550;-86
2023/07/07 02:23:44;;;;;;;16.10;7.45;;;;;;;25.43;60.63;100189.13;5027376;28;20033;-85
2023/07/07 02:26:11;;;;;;;12.32;6.82;;;;;;;25.33;60.92;100176.97;5027419;28;20033;-86
2023/07/07 02:28:37;;;;;;;19.20;6.43;;;;;;;25.36;61.07;100187.50;5035009;28;20034;-88
2023/07/07 02:31:02;;;;;;;21.70;6.82;;;;;;;25.32;61.18;100195.41;5040431;28;20040;-88
2023/07/07 02:33:31;;;;;;;13.27;7.60;;;;;;;25.38;61.10;100202.72;5083420;28;20052;-86
2023/07/07 02:36:07;;;;;;;10.40;6.60;;;;;;;25.32;61.47;100203.66;5089674;28;20668;-85
2023/07/07 02:38:35;;;;;;;24.20;7.45;;;;;;;25.28;61.52;100204.38;5085876;28;20050;-85
2023/07/07 02:41:01;;;;;;;9.70;7.22;;;;;;;25.26;61.77;100198.22;5089562;28;20094;-85
2023/07/07 02:43:27;;;;;;;11.90;7.72;;;;;;;25.28;61.50;100201.59;5088624;28;20024;-86
2023/07/07 02:45:53;;;;;;;11.25;6.93;;;;;;;25.27;61.43;100202.66;5093742;28;20016;-88
2023/07/07 02:48:20;;;;;;;18.77;7.45;;;;;;;25.30;61.54;100204.97;5109789;28;20016;-86
2023/07/07 02:51:01;;;;;;;14.43;6.88;;;;;;;25.28;61.76;100204.38;5095907;28;20068;-85
2023/07/07 02:53:29;;;;;;;23.67;7.53;;;;;;;25.30;61.58;100205.81;5090308;28;20084;-86
2023/07/07 02:55:55;;;;;;;11.00;6.75;;;;;;;25.24;61.83;100195.72;5075937;28;20556;-86
2023/07/07 02:58:21;;;;;;;14.23;6.90;;;;;;;25.16;61.60;100195.19;5069283;28;20017;-86
2023/07/07 03:00:47;;;;;;;13.82;6.32;;;;;;;25.12;61.89;100192.06;5069369;28;20055;-87
2023/07/07 03:03:12;;;;;;;20.02;6.88;;;;;;;24.99;61.82;100164.69;5068574;28;20036;-86
2023/07/07 03:05:38;;;;;;;13.13;6.93;;;;;;;25.13;61.83;100198.41;5070582;28;20484;-87
2023/07/07 03:08:04;;;;;;;13.38;6.63;;;;;;;25.14;61.99;100213.81;5093353;28;20029;-86
2023/07/07 03:10:34;;;;;;;10.82;7.28;;;;;;;25.09;62.02;100214.53;5088089;28;20103;-87
2023/07/07 03:13:01;;;;;;;13.25;6.68;;;;;;;25.08;62.15;100209.25;5072810;28;20119;-87
2023/07/07 03:15:29;;;;;;;16.65;7.20;;;;;;;25.09;62.18;100214.53;5072517;28;20090;-88
2023/07/07 03:17:55;;;;;;;40.75;9.68;;;;;;;25.10;62.11;100218.13;5073822;28;20032;-88
2023/07/07 03:20:26;;;;;;;12.73;6.18;;;;;;;25.06;61.98;100206.72;5073053;28;20056;-88
2023/07/07 03:22:52;;;;;;;18.30;6.45;;;;;;;25.06;62.27;100203.13;5082530;28;20377;-89
2023/07/07 03:25:17;;;;;;;13.82;7.28;;;;;;;24.95;62.72;100190.16;5092520;28;20085;-89
2023/07/07 03:27:43;;;;;;;11.15;6.40;;;;;;;24.90;62.51;100196.31;5093203;28;20034;-87
2023/07/07 03:30:08;;;;;;;12.52;6.25;;;;;;;24.98;62.58;100196.03;5084563;28;20040;-87
2023/07/07 03:32:34;;;;;;;8.07;4.97;;;;;;;24.90;62.67;100191.66;5075204;28;20048;-87
2023/07/07 03:34:59;;;;;;;10.75;6.13;;;;;;;24.94;62.44;100199.47;5085801;28;20080;-86
2023/07/07 03:37:24;;;;;;;15.63;7.80;;;;;;;24.94;62.62;100202.22;5081308;28;20119;-87
2023/07/07 03:39:50;;;;;;;13.40;7.22;;;;;;;24.88;62.36;100196.56;5072574;28;20476;-88
2023/07/07 03:42:15;;;;;;;20.25;6.78;;;;;;;24.98;62.55;100219.97;5083461;28;20553;-88
2023/07/07 03:44:41;;;;;;;13.82;7.13;;;;;;;24.98;62.45;100217.22;5068913;28;20459;-87
2023/07/07 03:47:07;;;;;;;11.00;6.15;;;;;;;24.97;62.27;100205.34;5052418;28;20049;-86
2023/07/07 03:49:32;;;;;;;11.40;5.85;;;;;;;25.05;62.47;100220.72;5070026;28;20036;-87
2023/07/07 03:51:57;;;;;;;10.75;5.70;;;;;;;25.06;62.61;100217.75;5097623;28;20100;-88
2023/07/07 03:54:23;;;;;;;12.57;6.82;;;;;;;25.01;62.59;100216.75;5096774;28;20035;-88
2023/07/07 03:56:48;;;;;;;21.83;7.18;;;;;;;25.00;62.48;100209.56;5063748;28;20124;-88
2023/07/07 03:59:14;;;;;;;22.38;6.40;;;;;;;25.13;62.31;100214.91;5080749;28;20095;-86
2023/07/07 04:01:39;;;;;;;12.73;6.18;;;;;;;25.10;62.14;100193.38;5073204;28;20037;-88
2023/07/07 04:04:05;;;;;;;14.30;6.10;;;;;;;25.18;61.86;100212.31;5068841;28;20038;-89
2023/07/07 04:06:31;;;;;;;16.08;6.60;;;;;;;25.06;62.26;100201.22;5069012;28;20036;-87
2023/07/07 04:08:56;;;;;;;30.75;7.43;;;;;;;25.27;61.83;100210.94;5069826;28;20047;-88
2023/07/07 04:11:22;;;;;;;11.38;6.78;;;;;;;25.31;61.58;100207.50;5069432;28;20040;-89
2023/07/07 04:13:50;;;;;;;9.75;6.32;;;;;;;25.32;61.30;100209.16;5050738;28;20075;-87
2023/07/07 04:16:23;;;;;;;12.73;6.55;;;;;;;25.38;61.37;100218.44;5050843;28;20045;-87
2023/07/07 04:18:50;;;;;;;9.48;5.95;;;;;;;25.30;61.17;100199.44;5059406;28;20033;-87
2023/07/07 04:21:20;;;;;;;10.15;6.80;;;;;;;25.45;60.87;100232.94;5064694;28;20035;-84
2023/07/07 04:23:47;;;;;;;13.27;6.03;;;;;;;25.46;60.88;100226.38;5050270;28;20064;-86
2023/07/07 04:26:12;;;;;;;13.10;5.82;;;;;;;25.41;60.96;100215.22;5048826;28;20037;-86
2023/07/07 04:28:39;;;;;;;17.27;6.53;;;;;;;25.47;60.71;100233.56;5047897;28;20041;-87
2023/07/07 04:31:07;;;;;;;17.80;6.50;;;;;;;25.53;60.59;100226.31;5050578;28;20043;-85
2023/07/07 04:33:33;;;;;;;24.33;7.07;;;;;;;25.58;60.43;100223.69;5048548;28;20053;-87
2023/07/07 04:36:05;;;;;;;16.63;6.47;;;;;;;25.67;60.38;100236.06;5049147;28;20207;-86
2023/07/07 04:38:32;;;;;;;16.52;7.18;;;;;;;25.68;60.37;100230.34;5028558;28;20180;-86
2023/07/07 04:41:15;;;;;;;18.98;6.70;;;;;;;25.73;60.17;100233.25;5043700;28;20056;-86
2023/07/07 04:43:43;;;;;;;14.90;6.47;;;;;;;25.80;60.00;100236.75;5052437;28;20032;-85
2023/07/07 04:46:11;;;;;;;19.27;5.95;;;;;;;25.79;59.35;100226.78;5084066;28;20024;-85
2023/07/07 04:48:37;;;;;;;20.05;5.20;;;;;;;25.80;59.05;100220.22;5072341;28;20105;-85
2023/07/07 04:51:07;;;;;;;17.25;5.53;;;;;;;25.89;58.70;100243.63;5071026;28;20032;-84
2023/07/07 04:53:34;;;;;;;11.18;5.00;;;;;;;25.84;58.28;100218.66;5071357;28;20032;-85
2023/07/07 04:56:02;;;;;;;15.65;5.97;;;;;;;25.99;58.71;100232.03;5073109;28;20038;-81
2023/07/07 04:58:28;;;;;;;22.85;5.85;;;;;;;26.02;58.34;100236.22;5070546;28;20031;-83
2023/07/07 05:01:04;;;;;;;16.98;5.53;;;;;;;26.11;57.80;100245.84;5071295;28;20082;-86
2023/07/07 05:03:30;;;;;;;11.90;5.97;;;;;;;26.24;57.77;100242.91;5072221;28;20032;-91
2023/07/07 05:05:57;;;;;;;10.65;5.75;;;;;;;26.25;57.54;100241.81;5080224;28;20047;-91
2023/07/07 05:08:22;;;;;;;15.85;5.45;;;;;;;26.30;57.16;100250.22;5091658;28;20031;-86
2023/07/07 05:10:48;;;;;;;20.00;6.47;;;;;;;26.39;57.11;100255.16;5090608;28;20032;-86
2023/07/07 05:13:13;;;;;;;11.25;5.22;;;;;;;26.44;56.73;100257.22;5092424;28;20031;-84
2023/07/07 05:15:39;;;;;;;13.93;5.07;;;;;;;26.34;57.10;100234.91;5093153;28;20070;-85
2023/07/07 05:18:05;;;;;;;12.15;5.40;;;;;;;26.45;56.88;100243.19;5099913;28;20498;-83
2023/07/07 05:20:30;;;;;;;9.32;4.43;;;;;;;26.53;56.28;100253.03;5104151;28;20853;-84
2023/07/07 05:22:55;;;;;;;18.73;4.55;;;;;;;26.42;56.56;100231.81;5095569;28;20041;-87
2023/07/07 05:25:21;;;;;;;20.75;6.43;;;;;;;26.55;56.46;100256.38;5095232;28;20028;-88
2023/07/07 05:27:46;;;;;;;17.38;5.38;;;;;;;26.63;55.89;100269.84;5095135;28;20017;-85
2023/07/07 05:30:12;;;;;;;13.70;4.55;;;;;;;26.63;56.11;100267.09;5085591;28;20032;-87
2023/07/07 05:32:38;;;;;;;17.00;5.93;;;;;;;26.57;55.95;100251.50;5085505;28;20062;-85
2023/07/07 05:35:03;;;;;;;14.20;5.55;;;;;;;26.77;55.98;100270.44;5080042;28;20103;-82
2023/07/07 05:37:29;;;;;;;16.13;7.30;;;;;;;26.71;55.70;100263.13;5073453;28;20063;-84
2023/07/07 05:39:54;;;;;;;11.63;4.72;;;;;;;26.90;55.66;100284.91;5071054;28;20029;-83
2023/07/07 05:42:20;;;;;;;6.40;4.10;;;;;;;26.95;55.20;100286.94;5070504;28;20043;-85
2023/07/07 05:44:45;;;;;;;9.70;5.50;;;;;;;26.84;55.22;100280.34;5070771;28;20071;-84
2023/07/07 05:47:10;;;;;;;6.18;4.25;;;;;;;26.86;55.09;100289.22;5070568;28;20031;-85
2023/07/07 05:49:36;;;;;;;16.92;4.07;;;;;;;26.79;55.11;100265.53;5078907;28;20020;-85
2023/07/07 05:52:01;;;;;;;9.40;4.72;;;;;;;26.85;55.19;100270.13;5075120;28;20642;-87
2023/07/07 05:54:27;;;;;;;11.00;3.65;;;;;;;26.93;54.43;100273.38;5070273;28;20047;-80
2023/07/07 05:56:54;;;;;;;10.70;4.25;;;;;;;26.93;54.61;100265.09;5069034;28;20025;-78
2023/07/07 05:59:20;;;;;;;20.15;5.30;;;;;;;27.18;54.41;100286.09;5070240;28;20028;-81
2023/07/07 06:01:45;;;;;;;8.43;4.53;;;;;;;27.28;54.73;100276.09;5086288;28;20707;-81
2023/07/07 06:04:10;;;;;;;8.98;3.95;;;;;;;27.38;53.64;100278.25;5092342;28;20137;-82
2023/07/07 06:06:36;;;;;;;11.77;3.72;;;;;;;27.40;53.56;100287.16;5087675;28;20020;-81
2023/07/07 06:09:02;;;;;;;29.17;4.05;;;;;;;27.41;53.44;100277.78;5069224;28;20634;-80
2023/07/07 06:11:27;;;;;;;17.23;5.22;;;;;;;27.41;53.19;100275.00;5069528;28;20125;-81
2023/07/07 06:13:52;;;;;;;17.52;6.88;;;;;;;27.51;53.70;100270.59;5071072;28;20484;-81
2023/07/07 06:16:18;;;;;;;15.70;5.78;;;;;;;27.58;53.07;100268.50;5071678;28;20538;-82
2023/07/07 06:18:44;;;;;;;12.52;4.57;;;;;;;27.57;52.87;100257.72;5070802;28;20032;-80
2023/07/07 06:21:09;;;;;;;9.20;4.57;;;;;;;27.62;52.69;100245.91;5069071;28;20570;-87
2023/07/07 06:23:35;;;;;;;12.35;4.95;;;;;;;27.86;52.28;100267.69;5069039;28;20601;-88
2023/07/07 06:26:01;;;;;;;15.23;4.70;;;;;;;27.90;51.61;100268.88;5069732;28;20433;-89
2023/07/07 06:28:26;;;;;;;25.38;4.95;;;;;;;27.95;51.40;100266.22;5069774;28;20020;-88
2023/07/07 06:30:52;;;;;;;10.65;5.30;;;;;;;27.90;51.65;100257.81;5069805;28;20064;-88
2023/07/07 06:33:18;;;;;;;11.15;4.18;;;;;;;27.92;51.72;100269.47;5069688;28;20105;-87
2023/07/07 06:35:44;;;;;;;12.38;3.97;;;;;;;27.90;51.92;100260.59;5068179;28;20021;-88
2023/07/07 06:38:10;;;;;;;13.32;4.63;;;;;;;28.09;51.58;100277.84;5069475;28;20036;-88
2023/07/07 06:40:35;;;;;;;17.98;6.78;;;;;;;28.22;51.60;100273.94;5067845;28;20112;-88
2023/07/07 06:43:01;;;;;;;12.43;5.70;;;;;;;28.27;51.24;100279.56;5069774;28;20063;-87
2023/07/07 06:45:27;;;;;;;28.08;5.28;;;;;;;28.19;51.35;100260.63;5069439;28;20039;-87
2023/07/07 06:47:54;;;;;;;6.57;4.40;;;;;;;28.23;51.01;100259.00;5070263;28;20029;-88
2023/07/07 06:50:31;;;;;;;17.25;4.90;;;;;;;28.31;50.91;100256.69;5071418;28;20028;-87
2023/07/07 06:52:57;;;;;;;11.23;4.57;;;;;;;28.36;50.49;100258.69;5071099;28;20036;-88
2023/07/07 06:55:23;;;;;;;13.32;4.75;;;;;;;28.42;50.11;100268.78;5080241;28;20047;-86
2023/07/07 06:57:49;;;;;;;19.15;5.03;;;;;;;28.44;50.61;100269.38;5076837;28;20040;-87
2023/07/07 07:00:15;;;;;;;16.48;6.40;;;;;;;28.61;49.94;100273.81;5068069;28;20029;-87
2023/07/07 07:02:42;;;;;;;20.30;5.15;;;;;;;28.71;50.01;100273.19;5068955;28;20119;-87
2023/07/07 07:05:08;;;;;;;21.77;7.68;;;;;;;28.83;49.86;100285.00;5127328;28;20039;-87
2023/07/07 07:07:33;;;;;;;11.73;4.57;;;;;;;28.98;49.67;100282.47;5128470;28;20039;-86
2023/07/07 07:10:02;;;;;;;8.15;4.68;;;;;;;29.15;49.02;100272.22;5110194;28;20081;-88
2023/07/07 07:12:28;;;;;;;20.75;5.50;;;;;;;29.25;48.78;100254.94;5127757;28;20031;-82
2023/07/07 07:14:53;;;;;;;8.45;4.75;;;;;;;29.49;48.10;100272.16;5126815;28;20180;-83
2023/07/07 07:17:19;;;;;;;15.15;5.22;;;;;;;29.58;47.73;100273.38;5092365;28;20495;-84
2023/07/07 07:19:44;;;;;;;11.48;4.78;;;;;;;29.56;47.24;100257.00;5133972;28;20019;-83
2023/07/07 07:22:09;;;;;;;19.50;5.85;;;;;;;29.57;47.35;100274.50;5136419;28;20027;-83
2023/07/07 07:24:35;;;;;;;17.58;5.10;;;;;;;29.56;47.49;100278.34;5127277;28;20020;-83
2023/07/07 07:27:00;;;;;;;6.88;4.85;;;;;;;29.51;47.44;100264.44;5126657;28;20031;-83
2023/07/07 07:29:26;;;;;;;24.27;5.13;;;;;;;29.57;47.58;100274.50;5126704;28;20507;-84
2023/07/07 07:31:51;;;;;;;34.58;7.20;;;;;;;29.61;47.43;100275.63;5126316;28;20085;-82
2023/07/07 07:34:24;;;;;;;15.40;4.80;;;;;;;29.66;46.85;100270.16;5126570;28;20027;-84
2023/07/07 07:36:52;;;;;;;11.05;4.38;;;;;;;29.75;46.55;100292.72;5126477;28;20047;-84
2023/07/07 07:39:17;;;;;;;12.50;4.70;;;;;;;29.75;46.54;100290.78;5126801;28;20031;-84
2023/07/07 07:41:46;;;;;;;13.95;4.45;;;;;;;29.81;45.80;100291.69;5118480;28;20049;-85
2023/07/07 07:44:13;;;;;;;11.68;3.92;;;;;;;29.70;44.80;100290.72;5068040;28;20024;-84
2023/07/07 07:46:38;;;;;;;7.28;4.32;;;;;;;29.75;45.17;100309.38;5068144;28;20059;-83
2023/07/07 07:49:04;;;;;;;18.33;4.18;;;;;;;29.72;45.02;100299.63;5068282;28;20772;-84
2023/07/07 07:51:29;;;;;;;13.90;4.70;;;;;;;29.77;44.77;100310.78;5070702;28;20028;-83
2023/07/07 07:53:55;;;;;;;13.55;4.03;;;;;;;29.80;44.42;100307.47;5069859;28;20556;-87
2023/07/07 07:56:20;;;;;;;17.15;4.93;;;;;;;29.76;44.20;100311.00;5071061;28;20055;-85
2023/07/07 07:58:47;;;;;;;10.40;4.40;;;;;;;29.78;44.14;100315.22;5071927;28;20480;-89
2023/07/07 08:01:12;;;;;;;17.42;5.35;;;;;;;29.80;44.22;100312.19;5071136;28;20028;-90
2023/07/07 08:03:38;;;;;;;16.98;6.55;;;;;;;29.88;44.33;100304.28;5073229;28;20503;-88
2023/07/07 08:06:03;;;;;;;13.65;4.60;;;;;;;29.93;43.64;100306.28;5072396;28;20445;-87
2023/07/07 08:08:28;;;;;;;11.73;4.00;;;;;;;29.96;44.09;100300.22;5070838;28;20024;-88
2023/07/07 08:10:54;;;;;;;11.60;3.78;;;;;;;29.98;44.00;100285.00;5070567;28;20098;-88
2023/07/07 08:13:19;;;;;;;84.15;14.55;;;;;;;30.18;43.86;100301.84;5072091;28;20017;-92
2023/07/07 08:15:45;;;;;;;9.18;4.53;;;;;;;30.26;43.72;100277.50;5074562;28;20027;-89
2023/07/07 08:18:10;;;;;;;16.33;4.07;;;;;;;30.41;43.44;100286.00;5072425;28;20021;-90
2023/07/07 08:20:36;;;;;;;15.27;4.82;;;;;;;30.47;42.29;100293.28;5071730;28;20808;-89
2023/07/07 08:23:01;;;;;;;16.40;4.55;;;;;;;30.54;42.22;100296.69;5072230;28;20565;-89
2023/07/07 08:25:27;;;;;;;15.75;3.95;;;;;;;30.58;42.11;100295.06;5071874;28;20032;-89
2023/07/07 08:27:53;;;;;;;11.70;4.43;;;;;;;30.73;41.97;100300.75;5104091;28;20024;-87
2023/07/07 08:30:19;;;;;;;18.25;3.92;;;;;;;30.88;41.78;100292.56;5072712;28;20028;-86
2023/07/07 08:32:45;;;;;;;17.73;4.93;;;;;;;31.05;41.66;100292.41;5070717;28;20049;-82
2023/07/07 08:35:11;;;;;;;29.65;5.53;;;;;;;31.12;41.20;100282.75;5070533;28;20028;-80
2023/07/07 08:37:37;;;;;;;29.05;4.38;;;;;;;31.28;41.24;100287.28;5070582;28;20024;-81
2023/07/07 08:40:03;;;;;;;17.35;4.72;;;;;;;31.41;40.65;100296.25;5070560;28;20024;-81
2023/07/07 08:42:36;;;;;;;17.63;4.35;;;;;;;31.53;40.52;100294.16;5070151;28;20036;-81
2023/07/07 08:45:11;;;;;;;29.95;6.40;;;;;;;31.60;40.15;100290.00;5070464;28;20169;-76
2023/07/07 08:47:59;;;;;;;13.70;4.78;;;;;;;31.73;40.73;100280.31;5084941;28;20036;-81
2023/07/07 08:50:37;;;;;;;17.27;3.88;;;;;;;31.94;40.16;100273.72;5089886;28;20027;-80
2023/07/07 08:53:30;;;;;;;16.95;5.03;;;;;;;32.23;40.50;100293.59;5090570;28;20032;-77
2023/07/07 08:56:00;;;;;;;14.70;5.70;;;;;;;32.25;39.34;100269.94;5087721;28;20055;-83
2023/07/07 08:58:55;;;;;;;18.77;4.45;;;;;;;32.28;39.58;100297.22;5090085;28;20027;-78
2023/07/07 09:01:35;;;;;;;13.02;4.63;;;;;;;32.17;40.11;100284.38;5025242;28;20060;-85
2023/07/07 09:04:04;;;;;;;20.35;5.10;;;;;;;32.11;39.95;100285.47;5007177;28;20121;-84
2023/07/07 09:06:48;;;;;;;18.05;5.53;;;;;;;32.14;40.19;100282.13;5008140;28;20029;-81
2023/07/07 09:09:13;;;;;;;15.70;5.40;;;;;;;32.24;39.95;100281.31;5008220;28;20069;-82
2023/07/07 09:11:51;;;;;;;19.58;5.20;;;;;;;32.33;39.62;100293.59;5008790;28;20069;-82
2023/07/07 09:14:18;;;;;;;15.50;4.43;;;;;;;32.42;39.77;100291.09;4988214;28;20034;-82
2023/07/07 09:16:46;;;;;;;18.67;5.25;;;;;;;32.49;39.32;100294.44;4988153;28;20120;-83
2023/07/07 09:19:17;;;;;;;16.02;4.43;;;;;;;32.43;39.24;100281.63;4988284;28;20121;-89
2023/07/07 09:21:48;;;;;;;19.77;4.13;;;;;;;32.41;38.93;100284.72;4988114;28;20048;-85
2023/07/07 09:24:29;;;;;;;7.15;4.28;;;;;;;32.39;39.14;100288.88;4988814;28;20046;-82
2023/07/07 09:27:00;;;;;;;14.70;4.55;;;;;;;32.25;39.65;100285.78;4989353;28;20035;-83
2023/07/07 09:29:29;;;;;;;18.27;4.22;;;;;;;32.27;39.95;100289.97;4988676;28;20105;-83
2023/07/07 09:31:54;;;;;;;11.55;4.75;;;;;;;32.25;39.71;100286.63;4996507;28;20046;-83
2023/07/07 09:34:22;;;;;;;15.68;5.47;;;;;;;32.32;39.54;100306.66;4996649;28;20035;-83
2023/07/07 09:36:58;;;;;;;17.10;6.75;;;;;;;32.32;39.27;100303.06;4990545;28;20038;-83
2023/07/07 09:39:42;;;;;;;13.52;4.75;;;;;;;32.44;39.10;100295.31;5046445;28;20137;-83
2023/07/07 09:42:14;;;;;;;23.73;4.40;;;;;;;32.39;39.66;100288.88;5049960;28;20033;-82
2023/07/07 09:44:58;;;;;;;22.52;4.68;;;;;;;32.32;39.45;100275.25;5055282;28;20036;-83
2023/07/07 09:47:38;;;;;;;12.57;6.45;;;;;;;32.48;40.41;100292.78;5071739;28;20028;-82
2023/07/07 09:50:12;;;;;;;15.18;6.25;;;;;;;32.56;39.85;100281.97;5072029;28;20074;-83
2023/07/07 09:52:50;;;;;;;9.52;5.15;;;;;;;32.67;39.23;100280.84;5072355;28;20079;-83
2023/07/07 09:55:20;;;;;;;16.50;4.72;;;;;;;32.86;39.07;100287.53;5075031;28;20029;-82
2023/07/07 09:58:09;;;;;;;17.70;4.93;;;;;;;32.90;38.78;100270.25;5090854;28;20021;-82
2023/07/07 10:00:36;;;;;;;15.23;4.32;;;;;;;33.01;38.79;100283.06;5072950;28;20063;-83
2023/07/07 10:03:13;;;;;;;16.98;5.43;;;;;;;33.03;39.05;100273.28;5091561;28;20036;-81
2023/07/07 10:05:40;;;;;;;13.30;5.60;;;;;;;33.19;38.35;100290.88;5097559;28;20773;-81
2023/07/07 10:08:11;;;;;;;7.65;5.13;;;;;;;33.23;38.17;100276.09;5113574;28;20025;-81
2023/07/07 10:10:37;;;;;;;7.18;3.75;;;;;;;33.28;36.69;100269.66;5104202;28;20084;-82
2023/07/07 10:13:02;;;;;;;18.05;5.00;;;;;;;33.21;36.56;100274.72;5099869;28;20062;-81
2023/07/07 10:15:50;;;;;;;10.57;3.95;;;;;;;33.14;35.90;100282.53;5091199;28;20028;-81
2023/07/07 10:18:22;;;;;;;21.45;4.20;;;;;;;33.19;36.33;100296.44;5091081;28;20024;-81
2023/07/07 10:20:47;;;;;;;12.57;4.07;;;;;;;33.24;36.39;100283.31;5092117;28;20028;-81
2023/07/07 10:23:13;;;;;;;12.88;5.55;;;;;;;33.16;36.33;100260.75;5106802;28;20085;-87
2023/07/07 10:25:41;;;;;;;8.82;3.95;;;;;;;33.27;36.47;100266.03;5092026;28;20028;-83
2023/07/07 10:28:12;;;;;;;11.00;4.50;;;;;;;33.36;36.25;100260.72;5090845;28;20134;-90
2023/07/07 10:30:40;;;;;;;17.73;5.45;;;;;;;33.62;36.40;100261.47;5072560;28;20024;-85
2023/07/07 10:33:08;;;;;;;20.95;4.95;;;;;;;33.79;36.16;100261.97;5070577;28;20413;-85
2023/07/07 10:35:35;;;;;;;23.13;5.40;;;;;;;33.92;36.07;100275.28;5084939;28;20055;-86
2023/07/07 10:38:03;;;;;;;12.18;4.75;;;;;;;33.95;35.20;100263.56;5092227;28;20099;-86
2023/07/07 10:40:30;;;;;;;19.48;5.07;;;;;;;33.87;35.83;100253.00;5092345;28;20032;-84
2023/07/07 10:42:57;;;;;;;15.88;5.90;;;;;;;34.10;35.21;100249.53;5098275;28;20027;-85
2023/07/07 10:45:23;;;;;;;7.18;4.35;;;;;;;34.29;35.16;100261.69;5101667;28;20032;-86
2023/07/07 10:47:49;;;;;;;13.77;5.93;;;;;;;34.29;35.01;100256.13;5100318;28;20065;-84
2023/07/07 10:50:20;;;;;;;20.90;6.68;;;;;;;34.43;35.41;100247.91;5091014;28;20036;-85
2023/07/07 10:52:49;;;;;;;13.95;6.40;;;;;;;34.49;35.30;100251.50;5091046;28;20024;-84
2023/07/07 10:55:33;;;;;;;31.02;6.13;;;;;;;34.61;35.42;100252.84;5096353;28;20032;-84
2023/07/07 10:58:25;;;;;;;14.20;4.95;;;;;;;34.52;34.31;100229.41;5101755;28;20031;-87
2023/07/07 11:00:53;;;;;;;;;;;;;;;34.51;34.87;100246.44;5086435;28;20024;-79
2023/07/07 11:03:30;;;;;;;43.67;7.50;;;;;;;34.54;35.22;100237.47;5077295;28;19919;-80
2023/07/07 11:06:02;;;;;;;19.70;5.85;;;;;;;34.57;35.03;100228.53;5067349;28;20032;-83
2023/07/07 11:08:28;;;;;;;18.58;6.53;;;;;;;34.60;34.40;100236.34;5077462;28;20024;-80
2023/07/07 11:11:08;;;;;;;14.15;5.78;;;;;;;34.74;33.96;100228.97;5070444;28;20094;-81
2023/07/07 11:13:53;;;;;;;18.40;5.07;;;;;;;34.85;33.78;100224.94;5070822;28;20101;-82
2023/07/07 11:16:25;;;;;;;10.52;4.78;;;;;;;34.83;33.37;100216.03;5075865;28;20028;-83
2023/07/07 11:19:01;;;;;;;20.70;5.15;;;;;;;34.82;33.95;100209.59;5074381;28;20033;-81
2023/07/07 11:21:45;;;;;;;20.95;6.13;;;;;;;34.78;33.68;100205.72;5071198;28;20017;-81
2023/07/07 11:24:40;;;;;;;9.82;5.15;;;;;;;34.86;33.91;100201.47;5055582;28;20496;-81
2023/07/07 11:27:33;;;;;;;75.03;6.57;;;;;;;34.98;33.12;100201.91;5027119;28;20150;-83